Time;durP1;ratioP1;P1;durP2;ratioP2;P2;SDS_P1;SDS_P2;PMS_P1;PMS_P2;Temp;Humidity;BMP_temperature;BMP_pressure;BME280_temperature;BME280_humidity;BME280_pressure;Samples;Min_cycle;Max_cycle;Signal;HPM_P1;HPM_P2
2021/12/22 00:01:41;;;;;;;125.43;44.72;;;;;;;-1.55;89.63;102558.28;5032771;28;20025;-42
2021/12/22 00:04:06;;;;;;;140.40;49.00;;;;;;;-1.51;89.96;102558.13;5032745;28;20128;-42
2021/12/22 00:06:34;;;;;;;163.95;53.72;;;;;;;-1.53;89.40;102544.13;5032235;28;20064;-42
2021/12/22 00:09:00;;;;;;;192.85;61.50;;;;;;;-1.59;89.40;102545.25;5031453;28;20045;-42
2021/12/22 00:11:26;;;;;;;188.52;58.60;;;;;;;-1.63;89.52;102544.50;5030091;28;20021;-42
2021/12/22 00:13:52;;;;;;;188.02;58.10;;;;;;;-1.59;89.67;102542.59;5019659;28;20069;-42
2021/12/22 00:16:19;;;;;;;169.65;55.17;;;;;;;-1.57;89.41;102538.97;5031222;28;20381;-42
2021/12/22 00:18:44;;;;;;;134.57;46.50;;;;;;;-1.60;89.42;102533.81;5031359;28;20037;-42
2021/12/22 00:21:10;;;;;;;127.75;44.10;;;;;;;-1.57;89.08;102533.69;5032509;28;20064;-42
2021/12/22 00:23:37;;;;;;;113.68;42.22;;;;;;;-1.58;89.24;102531.09;5029672;28;20056;-43
2021/12/22 00:26:03;;;;;;;92.65;35.05;;;;;;;-1.62;89.12;102529.53;5032538;28;20046;-43
2021/12/22 00:28:28;;;;;;;108.03;38.05;;;;;;;-1.64;89.96;102540.13;5031742;28;20033;-42
2021/12/22 00:30:54;;;;;;;98.88;37.85;;;;;;;-1.67;90.26;102532.34;5027301;28;20037;-42
2021/12/22 00:33:19;;;;;;;93.05;36.35;;;;;;;-1.68;91.00;102541.19;5012194;28;20390;-43
2021/12/22 00:35:45;;;;;;;89.68;34.17;;;;;;;-1.67;90.05;102535.00;5012607;28;20390;-43
2021/12/22 00:38:17;;;;;;;80.20;33.80;;;;;;;-1.67;90.71;102537.63;5011168;28;20030;-42
2021/12/22 00:40:43;;;;;;;85.95;34.75;;;;;;;-1.66;90.49;102536.72;5012444;28;20216;-42
2021/12/22 00:43:09;;;;;;;81.60;33.90;;;;;;;-1.66;90.96;102533.19;5018813;28;20033;-42
2021/12/22 00:45:35;;;;;;;67.25;29.80;;;;;;;-1.65;90.03;102530.50;5031989;28;20048;-42
2021/12/22 00:48:05;;;;;;;66.68;30.02;;;;;;;-1.67;90.32;102534.13;5031946;28;20026;-42
2021/12/22 00:50:32;;;;;;;69.65;31.08;;;;;;;-1.66;90.81;102528.81;5033213;28;20052;-42
2021/12/22 00:52:57;;;;;;;69.88;31.20;;;;;;;-1.69;90.40;102528.91;5017324;28;20386;-42
2021/12/22 00:55:23;;;;;;;67.78;28.85;;;;;;;-1.70;90.85;102537.75;5012212;28;20026;-43
2021/12/22 00:57:49;;;;;;;66.80;29.13;;;;;;;-1.73;90.50;102544.94;5024742;28;20045;-41
2021/12/22 01:00:16;;;;;;;63.85;27.60;;;;;;;-1.71;91.08;102551.88;5030547;28;20083;-42
2021/12/22 01:02:42;;;;;;;68.43;29.42;;;;;;;-1.72;91.05;102550.16;5027278;28;20121;-42
2021/12/22 01:05:09;;;;;;;62.35;27.45;;;;;;;-1.73;90.54;102544.94;5012198;28;20109;-42
2021/12/22 01:07:34;;;;;;;60.63;26.75;;;;;;;-1.77;90.29;102554.75;5012492;28;20041;-42
2021/12/22 01:09:59;;;;;;;59.00;28.00;;;;;;;-1.80;90.09;102552.22;5012001;28;20430;-42
2021/12/22 01:12:25;;;;;;;59.75;27.00;;;;;;;-1.83;89.75;102557.63;5018095;28;20542;-42
2021/12/22 01:14:50;;;;;;;65.63;27.92;;;;;;;-1.83;90.56;102549.72;5030473;28;20084;-42
2021/12/22 01:17:17;;;;;;;58.95;26.58;;;;;;;-1.85;89.88;102546.28;5032970;28;20025;-42
2021/12/22 01:23:02;;;;;;;51.78;25.48;;;;;;;-1.87;90.38;102546.34;5016220;28;20041;-41
2021/12/22 01:25:02;;;;;;;56.50;25.95;;;;;;;-1.85;90.63;102543.63;5014649;28;20038;-42
2021/12/22 01:27:33;;;;;;;63.33;26.05;;;;;;;-1.88;90.63;102549.88;5015300;28;20041;-42
2021/12/22 01:30:00;;;;;;;62.35;25.40;;;;;;;-1.81;90.05;102542.59;5015342;28;20033;-43
2021/12/22 01:32:26;;;;;;;68.25;27.27;;;;;;;-1.80;90.40;102552.22;5016503;28;20069;-41
2021/12/22 01:34:51;;;;;;;55.72;25.45;;;;;;;-1.83;90.22;102544.44;5015201;28;20021;-42
2021/12/22 01:37:16;;;;;;;57.88;26.88;;;;;;;-1.88;90.62;102543.75;5014763;28;20435;-42
2021/12/22 01:39:42;;;;;;;60.83;25.17;;;;;;;-1.88;90.03;102541.13;5015229;28;20040;-42
2021/12/22 01:42:07;;;;;;;50.40;25.10;;;;;;;-1.90;90.42;102540.31;5029592;28;20381;-42
2021/12/22 01:44:48;;;;;;;62.60;27.25;;;;;;;-1.94;90.61;102531.66;5034832;28;20440;-41
2021/12/22 01:49:58;;;;;;;53.03;24.38;;;;;;;-2.02;89.91;102521.41;5033205;28;20392;-41
2021/12/22 01:52:23;;;;;;;65.97;26.60;;;;;;;-2.05;89.90;102529.44;5014567;28;20116;-42
2021/12/22 01:55:05;;;;;;;64.72;26.17;;;;;;;-2.02;90.57;102531.09;5014806;28;20493;-43
2021/12/22 01:57:32;;;;;;;73.32;27.95;;;;;;;-2.05;90.88;102526.81;5013745;28;20084;-43
2021/12/22 01:59:59;;;;;;;56.83;24.63;;;;;;;-1.97;90.68;102526.50;5033631;28;20029;-44
2021/12/22 02:02:24;;;;;;;60.25;27.48;;;;;;;-2.00;90.28;102526.63;5019971;28;20038;-42
2021/12/22 02:04:50;;;;;;;59.67;26.48;;;;;;;-1.99;90.34;102518.66;5014744;28;20088;-44
2021/12/22 02:07:15;;;;;;;74.45;29.00;;;;;;;-2.02;90.98;102536.38;5014604;28;20378;-43
2021/12/22 02:10:02;;;;;;;58.65;27.52;;;;;;;-2.04;90.89;102525.88;5022425;28;20036;-42
2021/12/22 02:12:32;;;;;;;64.22;26.58;;;;;;;-1.98;91.07;102533.53;5014342;28;20121;-42
2021/12/22 02:14:57;;;;;;;62.33;27.60;;;;;;;-1.99;91.03;102531.84;5014011;28;20060;-42
2021/12/22 02:17:25;;;;;;;60.00;26.60;;;;;;;-2.02;91.51;102528.47;5029447;28;20350;-42
2021/12/22 02:19:51;;;;;;;52.78;26.10;;;;;;;-2.01;91.73;102530.16;5028648;28;20029;-41
2021/12/22 02:22:17;;;;;;;61.08;26.08;;;;;;;-2.01;91.57;102532.81;5015341;28;20045;-42
2021/12/22 02:24:54;;;;;;;56.17;25.35;;;;;;;-2.01;91.06;102536.31;5014426;28;20044;-41
2021/12/22 02:27:34;;;;;;;58.78;26.73;;;;;;;-2.03;91.42;102542.56;5014608;28;20121;-42
2021/12/22 02:30:04;;;;;;;66.32;26.77;;;;;;;-2.03;91.01;102550.47;5014301;28;20029;-44
2021/12/22 02:35:13;;;;;;;61.92;25.10;;;;;;;-2.05;91.72;102541.78;5014076;28;20088;-43
2021/12/22 02:37:44;;;;;;;68.68;28.02;;;;;;;-2.06;91.46;102548.81;5013944;28;20030;-43
2021/12/22 02:40:14;;;;;;;65.97;28.90;;;;;;;-2.03;91.37;102550.47;5014363;28;20030;-43
2021/12/22 02:42:40;;;;;;;62.53;27.75;;;;;;;-2.05;91.53;102549.69;5013686;28;20026;-41
2021/12/22 02:45:11;;;;;;;66.00;27.55;;;;;;;-2.04;91.25;102554.91;5013836;28;20033;-42
2021/12/22 02:47:36;;;;;;;58.85;25.27;;;;;;;-2.08;90.67;102552.41;5021503;28;20128;-43
2021/12/22 02:50:03;;;;;;;59.58;25.40;;;;;;;-2.16;89.96;102550.06;5033344;28;20108;-42
2021/12/22 02:52:36;;;;;;;58.75;25.17;;;;;;;-2.22;90.53;102545.88;5033506;28;20369;-40
2021/12/22 02:55:02;;;;;;;58.15;27.02;;;;;;;-2.24;90.66;102541.59;5025927;28;20029;-41
2021/12/22 02:57:38;;;;;;;56.83;26.05;;;;;;;-2.23;90.89;102543.31;5013926;28;20022;-42
2021/12/22 03:02:57;;;;;;;63.65;26.38;;;;;;;-2.22;91.21;102534.50;5013733;28;20037;-42
2021/12/22 03:05:23;;;;;;;57.45;25.65;;;;;;;-2.21;91.05;102536.22;5013771;28;20022;-42
2021/12/22 03:07:49;;;;;;;61.40;25.42;;;;;;;-2.23;90.36;102540.69;5026568;28;20056;-42
2021/12/22 03:10:17;;;;;;;64.65;25.58;;;;;;;-2.27;90.19;102534.66;5033299;28;20033;-42
2021/12/22 03:12:52;;;;;;;61.00;26.15;;;;;;;-2.35;89.63;102542.00;5032991;28;20479;-44
2021/12/22 03:15:18;;;;;;;62.72;26.05;;;;;;;-2.43;89.98;102534.38;5033366;28;20127;-42
2021/12/22 03:17:44;;;;;;;73.43;27.77;;;;;;;-2.40;90.93;102532.53;5032577;28;20166;-42
2021/12/22 03:20:12;;;;;;;61.55;27.67;;;;;;;-2.38;90.95;102530.72;5012101;28;20128;-42
2021/12/22 03:22:38;;;;;;;60.60;25.70;;;;;;;-2.37;91.34;102543.84;5013227;28;20029;-42
2021/12/22 03:25:13;;;;;;;59.20;27.67;;;;;;;-2.36;91.25;102537.66;5012977;28;20362;-42
2021/12/22 03:27:38;;;;;;;66.53;27.80;;;;;;;-2.33;91.78;102536.69;5028018;28;20026;-42
2021/12/22 03:30:05;;;;;;;70.25;28.25;;;;;;;-2.34;91.89;102530.53;5032948;28;20041;-42
2021/12/22 03:32:30;;;;;;;63.35;26.50;;;;;;;-2.35;91.39;102528.81;5014890;28;20029;-42
2021/12/22 03:34:55;;;;;;;66.35;27.75;;;;;;;-2.32;91.48;102527.84;5032702;28;20064;-42
2021/12/22 03:37:21;;;;;;;65.70;27.15;;;;;;;-2.29;91.73;102528.59;5018774;28;20038;-41
2021/12/22 03:39:46;;;;;;;60.40;27.00;;;;;;;-2.30;91.50;102528.66;5011066;28;20041;-42
2021/12/22 03:42:12;;;;;;;70.18;27.60;;;;;;;-2.30;91.12;102524.22;5011505;28;20049;-42
2021/12/22 03:44:37;;;;;;;72.68;27.38;;;;;;;-2.33;90.93;102516.44;5012952;28;20057;-43
2021/12/22 03:47:03;;;;;;;74.78;29.02;;;;;;;-2.36;91.54;102510.44;5014002;28;20038;-42
2021/12/22 03:49:29;;;;;;;68.05;27.70;;;;;;;-2.40;91.58;102514.06;5012949;28;20132;-42
2021/12/22 03:51:56;;;;;;;70.85;28.33;;;;;;;-2.38;92.25;102512.25;5031936;28;20033;-42
2021/12/22 03:54:22;;;;;;;70.20;28.10;;;;;;;-2.38;91.98;102506.97;5011455;28;20099;-42
2021/12/22 03:56:49;;;;;;;71.82;28.80;;;;;;;-2.39;92.53;102515.81;5019034;28;20420;-41
2021/12/22 03:59:15;;;;;;;69.75;29.20;;;;;;;-2.39;92.28;102507.91;5023165;28;20044;-41
2021/12/22 04:01:40;;;;;;;70.10;28.92;;;;;;;-2.40;91.73;102508.81;5031099;28;20037;-41
2021/12/22 04:04:09;;;;;;;69.93;27.80;;;;;;;-2.43;92.35;102505.34;5031335;28;20060;-42
2021/12/22 04:06:34;;;;;;;67.80;27.08;;;;;;;-2.38;92.09;102501.72;5030586;28;20131;-43
2021/12/22 04:09:00;;;;;;;61.05;26.25;;;;;;;-2.38;92.18;102493.78;5031580;28;20026;-42
2021/12/22 04:11:25;;;;;;;71.85;28.42;;;;;;;-2.43;92.37;102502.72;5030831;28;20048;-42
2021/12/22 04:13:50;;;;;;;70.70;28.30;;;;;;;-2.40;92.02;102504.38;5032753;28;20022;-41
2021/12/22 04:16:16;;;;;;;69.30;27.95;;;;;;;-2.47;91.48;102502.91;5030862;28;20032;-42
2021/12/22 04:18:41;;;;;;;65.93;27.48;;;;;;;-2.48;91.35;102491.50;5031870;28;20171;-42
2021/12/22 04:21:07;;;;;;;72.32;28.20;;;;;;;-2.49;91.52;102489.78;5025385;28;20033;-42
2021/12/22 04:23:32;;;;;;;75.35;28.90;;;;;;;-2.48;92.02;102491.50;5012034;28;20077;-43
2021/12/22 04:25:58;;;;;;;66.78;27.80;;;;;;;-2.51;91.66;102483.69;5012360;28;20057;-41
2021/12/22 04:28:23;;;;;;;72.20;28.52;;;;;;;-2.53;91.97;102493.44;5011872;28;20474;-40
2021/12/22 04:30:50;;;;;;;80.22;29.65;;;;;;;-2.53;92.16;102488.16;5014080;28;20116;-43
2021/12/22 04:33:17;;;;;;;61.78;27.13;;;;;;;-2.53;92.36;102490.78;5030548;28;20022;-41
2021/12/22 04:35:43;;;;;;;68.40;28.48;;;;;;;-2.51;92.00;102494.25;5031824;28;20504;-43
2021/12/22 04:38:08;;;;;;;64.40;28.02;;;;;;;-2.48;92.26;102486.22;5031674;28;20034;-42
2021/12/22 04:40:34;;;;;;;60.92;25.35;;;;;;;-2.50;91.99;102477.53;5031287;28;20036;-42
2021/12/22 04:42:59;;;;;;;70.93;26.70;;;;;;;-2.46;91.47;102478.25;5012720;28;20026;-42
2021/12/22 04:45:25;;;;;;;61.17;27.23;;;;;;;-2.54;90.92;102473.28;5011627;28;20030;-42
2021/12/22 04:47:51;;;;;;;64.22;26.98;;;;;;;-2.57;91.15;102465.47;5011377;28;20450;-42
2021/12/22 04:50:18;;;;;;;71.72;27.58;;;;;;;-2.57;92.23;102465.47;5011851;28;20036;-42
2021/12/22 04:52:54;;;;;;;69.30;27.00;;;;;;;-2.60;92.29;102467.38;5033191;28;20069;-42
2021/12/22 04:55:21;;;;;;;67.15;28.48;;;;;;;-2.60;91.67;102468.25;5034222;28;20030;-41
2021/12/22 04:57:46;;;;;;;57.53;25.55;;;;;;;-2.62;91.68;102462.16;5035258;28;20032;-43
2021/12/22 05:00:13;;;;;;;70.60;25.95;;;;;;;-2.63;91.99;102460.44;5033759;28;20029;-42
2021/12/22 05:02:39;;;;;;;68.97;29.08;;;;;;;-2.58;92.07;102465.53;5035029;28;20104;-42
2021/12/22 05:05:04;;;;;;;66.20;25.77;;;;;;;-2.57;92.17;102454.94;5034883;28;20058;-42
2021/12/22 05:07:30;;;;;;;67.55;27.35;;;;;;;-2.56;91.39;102455.78;5034922;28;20029;-42
2021/12/22 05:09:55;;;;;;;64.85;26.95;;;;;;;-2.63;90.93;102452.53;5034828;28;20029;-42
2021/12/22 05:12:21;;;;;;;64.85;28.70;;;;;;;-2.66;91.35;102445.59;5016808;28;20033;-42
2021/12/22 05:14:49;;;;;;;69.18;28.20;;;;;;;-2.68;92.31;102446.59;5015601;28;20065;-43
2021/12/22 05:17:23;;;;;;;77.70;30.50;;;;;;;-2.69;92.09;102450.97;5015498;28;20061;-42
2021/12/22 05:19:48;;;;;;;64.40;27.60;;;;;;;-2.67;91.87;102458.84;5015507;28;20029;-42
2021/12/22 05:22:14;;;;;;;64.22;25.05;;;;;;;-2.62;91.61;102458.66;5030700;28;20523;-41
2021/12/22 05:24:39;;;;;;;66.90;27.90;;;;;;;-2.62;91.37;102456.88;5033970;28;20131;-41
2021/12/22 05:27:11;;;;;;;68.63;27.73;;;;;;;-2.67;91.38;102458.84;5035146;28;20033;-42
2021/12/22 05:29:37;;;;;;;66.00;27.17;;;;;;;-2.68;92.16;102467.66;5035299;28;20029;-42
2021/12/22 05:32:04;;;;;;;70.18;27.38;;;;;;;-2.72;91.17;102461.63;5034747;28;20359;-43
2021/12/22 05:34:29;;;;;;;76.22;28.85;;;;;;;-2.71;92.11;102462.50;5034931;28;20530;-43
2021/12/22 05:36:55;;;;;;;64.47;27.25;;;;;;;-2.71;92.58;102462.50;5035054;28;20207;-42
2021/12/22 05:39:20;;;;;;;71.68;28.92;;;;;;;-2.71;92.65;102458.09;5035170;28;20025;-42
2021/12/22 05:41:46;;;;;;;70.43;28.38;;;;;;;-2.73;91.88;102461.69;5033323;28;20351;-42
2021/12/22 05:44:11;;;;;;;65.32;27.25;;;;;;;-2.71;91.82;102451.97;5034706;28;20118;-41
2021/12/22 05:46:36;;;;;;;64.18;26.10;;;;;;;-2.70;92.36;102451.03;5034803;28;20465;-41
2021/12/22 05:49:02;;;;;;;69.35;28.17;;;;;;;-2.72;91.75;102450.22;5034630;28;20393;-41
2021/12/22 05:51:29;;;;;;;67.50;26.60;;;;;;;-2.73;91.75;102454.66;5013160;28;20041;-42
2021/12/22 05:53:55;;;;;;;64.70;27.37;;;;;;;-2.74;91.55;102446.78;5014982;28;20045;-41
2021/12/22 05:56:20;;;;;;;71.38;26.73;;;;;;;-2.71;91.45;102446.69;5015070;28;20379;-41
2021/12/22 05:58:45;;;;;;;62.60;25.65;;;;;;;-2.66;91.18;102455.28;5014797;28;20033;-41
2021/12/22 06:01:11;;;;;;;59.97;25.77;;;;;;;-2.67;91.36;102453.56;5014297;28;20034;-42
2021/12/22 06:03:37;;;;;;;62.15;26.85;;;;;;;-2.61;91.59;102457.75;5014084;28;20465;-41
2021/12/22 06:06:02;;;;;;;76.60;26.58;;;;;;;-2.63;90.88;102449.91;5014505;28;20096;-42
2021/12/22 06:08:28;;;;;;;63.97;24.45;;;;;;;-2.63;91.02;102444.63;5014347;28;20033;-42
2021/12/22 06:10:53;;;;;;;66.95;26.20;;;;;;;-2.63;91.09;102446.38;5020812;28;20038;-41
2021/12/22 06:13:18;;;;;;;61.60;25.77;;;;;;;-2.69;91.03;102444.84;5014198;28;20528;-42
2021/12/22 06:15:44;;;;;;;69.22;25.90;;;;;;;-2.69;90.81;102445.69;5013546;28;20116;-42
2021/12/22 06:18:09;;;;;;;60.38;26.55;;;;;;;-2.68;91.11;102447.44;5014474;28;20050;-42
2021/12/22 06:20:35;;;;;;;63.33;24.27;;;;;;;-2.71;90.90;102446.69;5015084;28;20431;-42
2021/12/22 06:23:01;;;;;;;68.20;27.33;;;;;;;-2.69;91.21;102452.75;5013101;28;20032;-42
2021/12/22 06:25:26;;;;;;;83.18;27.50;;;;;;;-2.74;91.24;102445.03;5014345;28;20025;-42
2021/12/22 06:27:52;;;;;;;74.35;28.13;;;;;;;-2.72;90.99;102452.88;5014204;28;20053;-42
2021/12/22 06:30:20;;;;;;;67.03;27.23;;;;;;;-2.74;91.04;102449.41;5017626;28;20124;-42
2021/12/22 06:32:48;;;;;;;64.03;27.00;;;;;;;-2.76;91.80;102449.50;5033715;28;20037;-42
2021/12/22 06:35:14;;;;;;;68.63;25.40;;;;;;;-2.79;91.14;102451.38;5032400;28;20115;-42
2021/12/22 06:37:39;;;;;;;76.15;26.55;;;;;;;-2.77;91.66;102449.53;5033562;28;20033;-42
2021/12/22 06:40:06;;;;;;;58.30;25.52;;;;;;;-2.79;91.50;102452.25;5031395;28;20057;-42
2021/12/22 06:42:32;;;;;;;65.63;26.77;;;;;;;-2.82;92.01;102448.84;5013564;28;20072;-44
2021/12/22 06:44:57;;;;;;;70.75;27.35;;;;;;;-2.82;91.90;102436.53;5013366;28;20034;-42
2021/12/22 06:47:22;;;;;;;67.63;27.58;;;;;;;-2.75;92.06;102445.09;5013717;28;20430;-43
2021/12/22 06:49:48;;;;;;;60.03;26.08;;;;;;;-2.69;92.00;102445.69;5013565;28;20087;-41
2021/12/22 06:52:13;;;;;;;64.75;27.02;;;;;;;-2.67;91.57;102449.16;5012588;28;20182;-42
2021/12/22 06:54:38;;;;;;;68.90;27.20;;;;;;;-2.71;91.74;102446.69;5011294;28;20304;-42
2021/12/22 06:57:04;;;;;;;69.05;26.63;;;;;;;-2.76;91.32;102443.38;5014607;28;20060;-42
2021/12/22 06:59:31;;;;;;;65.85;26.15;;;;;;;-2.78;91.45;102450.47;5013370;28;20092;-42
2021/12/22 07:01:56;;;;;;;60.83;25.90;;;;;;;-2.85;91.88;102441.91;5027780;28;20029;-41
2021/12/22 07:04:23;;;;;;;70.45;26.65;;;;;;;-2.77;92.21;102437.22;5028894;28;20029;-41
2021/12/22 07:06:48;;;;;;;66.22;27.08;;;;;;;-2.75;91.68;102430.13;5032313;28;20516;-42
2021/12/22 07:09:14;;;;;;;73.60;25.60;;;;;;;-2.78;91.89;102432.88;5024090;28;20034;-42
2021/12/22 07:11:39;;;;;;;65.63;25.45;;;;;;;-2.78;91.68;102434.66;5012504;28;20077;-43
2021/12/22 07:14:09;;;;;;;68.63;25.15;;;;;;;-2.85;92.09;102434.00;5027376;28;20128;-43
2021/12/22 07:16:34;;;;;;;72.40;26.27;;;;;;;-2.85;92.41;102436.66;5030782;28;20039;-42
2021/12/22 07:19:01;;;;;;;54.30;24.48;;;;;;;-2.78;91.95;102434.66;5038490;28;20383;-43
2021/12/22 07:21:26;;;;;;;62.60;25.73;;;;;;;-2.81;91.82;102427.72;5031065;28;20025;-42
2021/12/22 07:23:52;;;;;;;62.60;25.27;;;;;;;-2.74;91.29;102433.59;5032719;28;20458;-41
2021/12/22 07:26:18;;;;;;;65.28;24.40;;;;;;;-2.76;91.16;102430.19;5030293;28;20083;-42
2021/12/22 07:28:45;;;;;;;66.78;25.25;;;;;;;-2.74;91.41;102428.34;5029719;28;20109;-42
2021/12/22 07:31:12;;;;;;;61.63;24.25;;;;;;;-2.78;91.07;102424.97;5028970;28;20025;-42
2021/12/22 07:33:38;;;;;;;57.38;24.02;;;;;;;-2.79;90.94;102422.38;5024885;28;20458;-43
2021/12/22 07:36:06;;;;;;;73.90;26.67;;;;;;;-2.79;91.01;102417.09;5024245;28;20033;-42
2021/12/22 07:38:40;;;;;;;64.18;26.20;;;;;;;-2.80;90.79;102418.03;5019708;28;20465;-42
2021/12/22 07:41:07;;;;;;;64.40;26.00;;;;;;;-2.83;91.79;102416.38;5029182;28;20104;-43
2021/12/22 07:43:34;;;;;;;62.55;25.60;;;;;;;-2.80;91.63;102425.94;5029680;28;20507;-43
2021/12/22 07:46:00;;;;;;;64.25;24.73;;;;;;;-2.76;91.19;102428.41;5029626;28;20528;-43
2021/12/22 07:48:26;;;;;;;69.72;25.27;;;;;;;-2.77;91.85;102437.22;5011435;28;20029;-42
2021/12/22 07:50:52;;;;;;;64.95;25.63;;;;;;;-2.81;91.80;102433.00;5028636;28;20030;-42
2021/12/22 07:53:18;;;;;;;79.20;26.15;;;;;;;-2.80;91.66;102432.06;5030189;28;20053;-41
2021/12/22 07:55:43;;;;;;;63.58;26.30;;;;;;;-2.69;92.18;102434.31;5031004;28;20037;-40
2021/12/22 07:58:09;;;;;;;65.30;25.88;;;;;;;-2.67;92.10;102435.09;5027525;28;20037;-42
2021/12/22 08:00:35;;;;;;;70.30;26.40;;;;;;;-2.64;92.11;102445.53;5025111;28;20653;-43
2021/12/22 08:03:01;;;;;;;72.85;26.80;;;;;;;-2.57;92.12;102444.41;5026638;28;20073;-42
2021/12/22 08:05:26;;;;;;;64.18;25.13;;;;;;;-2.49;92.01;102446.75;5026259;28;20453;-41
2021/12/22 08:07:51;;;;;;;67.53;25.80;;;;;;;-2.37;92.20;102441.00;5028093;28;20475;-42
2021/12/22 08:10:17;;;;;;;57.78;25.13;;;;;;;-2.34;91.86;102434.72;5028205;28;20433;-42
2021/12/22 08:12:42;;;;;;;57.42;24.38;;;;;;;-2.40;90.78;102434.97;5028088;28;20033;-43
2021/12/22 08:15:08;;;;;;;65.38;24.88;;;;;;;-2.32;91.08;102443.44;5026221;28;20032;-41
2021/12/22 08:17:34;;;;;;;65.72;26.63;;;;;;;-2.33;90.83;102442.59;5027782;28;20048;-42
2021/12/22 08:20:00;;;;;;;59.72;25.48;;;;;;;-2.37;90.92;102440.13;5026131;28;20115;-40
2021/12/22 08:22:26;;;;;;;56.67;23.40;;;;;;;-2.33;90.93;102436.47;5024665;28;20128;-43
2021/12/22 08:24:51;;;;;;;61.53;24.50;;;;;;;-2.36;91.02;102436.59;5028144;28;20627;-42
2021/12/22 08:27:18;;;;;;;58.58;25.13;;;;;;;-2.16;91.63;102431.38;5030382;28;20026;-42
2021/12/22 08:29:44;;;;;;;62.25;24.55;;;;;;;-2.08;90.94;102438.97;5031628;28;20124;-41
2021/12/22 08:32:11;;;;;;;60.95;25.88;;;;;;;-2.05;90.58;102441.53;5031180;28;20059;-40
2021/12/22 08:34:39;;;;;;;55.30;23.65;;;;;;;-1.72;91.15;102438.44;5034289;28;20017;-42
2021/12/22 08:39:53;;;;;;;60.78;23.58;;;;;;;-1.25;89.39;102428.50;5021095;28;19916;-42
2021/12/22 08:42:19;;;;;;;50.40;21.88;;;;;;;-1.19;88.16;102430.88;5029801;28;20022;-42
2021/12/22 08:44:45;;;;;;;46.95;21.92;;;;;;;-1.04;87.76;102433.78;5031460;28;20033;-43
2021/12/22 08:47:10;;;;;;;64.68;22.80;;;;;;;-1.00;87.04;102424.75;5032049;28;20029;-42
2021/12/22 08:49:35;;;;;;;51.50;21.42;;;;;;;-1.02;86.08;102421.34;5020039;28;20025;-40
2021/12/22 08:52:01;;;;;;;55.13;22.40;;;;;;;-0.96;85.65;102416.63;5044373;28;20051;-42
2021/12/22 08:54:27;;;;;;;49.78;21.15;;;;;;;-1.04;85.69;102420.56;5023423;28;20536;-42
2021/12/22 08:56:55;;;;;;;56.05;22.38;;;;;;;-0.83;85.30;102422.25;5027830;28;20029;-42
2021/12/22 08:59:22;;;;;;;49.15;21.55;;;;;;;-0.71;85.66;102419.06;5022219;28;20111;-43
2021/12/22 09:01:48;;;;;;;51.92;21.88;;;;;;;-0.54;85.73;102430.63;5023206;28;20045;-40
2021/12/22 09:04:13;;;;;;;50.45;21.63;;;;;;;-0.42;84.73;102423.91;5023174;28;20120;-41
2021/12/22 09:06:38;;;;;;;54.80;21.70;;;;;;;-0.20;83.58;102427.25;5028478;28;20037;-43
2021/12/22 09:09:06;;;;;;;49.25;21.52;;;;;;;-0.26;82.78;102431.06;5029834;28;20405;-40
2021/12/22 09:11:31;;;;;;;54.78;21.88;;;;;;;-0.28;83.39;102438.19;5029841;28;20037;-42
2021/12/22 09:13:56;;;;;;;48.80;19.23;;;;;;;-0.24;83.06;102442.44;5031122;28;20211;-42
2021/12/22 09:16:22;;;;;;;42.25;20.27;;;;;;;-0.10;82.57;102431.19;5030494;28;20048;-42
2021/12/22 09:18:47;;;;;;;49.47;20.13;;;;;;;-0.09;82.52;102435.53;5030568;28;20647;-42
2021/12/22 09:21:13;;;;;;;46.75;20.85;;;;;;;-0.17;81.90;102437.69;5031469;28;20038;-42
2021/12/22 09:23:38;;;;;;;42.22;20.55;;;;;;;-0.23;82.91;102425.63;5031224;28;20033;-41
2021/12/22 09:26:05;;;;;;;44.75;20.92;;;;;;;-0.14;82.48;102421.66;5029304;28;20103;-43
2021/12/22 09:28:31;;;;;;;54.15;21.23;;;;;;;-0.14;81.83;102424.31;5031033;28;20026;-43
2021/12/22 09:30:56;;;;;;;49.50;21.25;;;;;;;-0.31;82.70;102427.75;5030519;28;20026;-42
2021/12/22 09:33:24;;;;;;;49.85;21.98;;;;;;;-0.32;83.20;102425.19;5030826;28;20033;-42
2021/12/22 09:35:50;;;;;;;;;;;;;;;-0.30;83.43;102425.97;5030630;28;20120;-41
2021/12/22 09:38:16;;;;;;;49.47;21.85;;;;;;;-0.19;84.00;102430.75;5028906;28;19996;-42
2021/12/22 09:40:42;;;;;;;54.42;21.98;;;;;;;0.25;84.75;102431.25;5030467;28;20038;-42
2021/12/22 09:43:07;;;;;;;44.10;20.98;;;;;;;0.82;84.28;102421.28;5031051;28;20032;-41
2021/12/22 09:45:35;;;;;;;46.72;20.80;;;;;;;1.56;81.06;102417.31;5029283;28;20394;-42
2021/12/22 09:50:46;;;;;;;45.30;18.75;;;;;;;2.63;76.58;102420.91;5030803;28;19916;-43
2021/12/22 09:53:13;;;;;;;45.50;17.90;;;;;;;3.17;72.97;102418.50;5014612;28;20104;-44
2021/12/22 09:55:39;;;;;;;41.35;17.27;;;;;;;3.97;70.36;102416.94;5030302;28;20030;-44
2021/12/22 09:58:05;;;;;;;44.22;18.90;;;;;;;3.89;67.14;102415.72;5029173;28;20064;-45
2021/12/22 10:00:32;;;;;;;40.70;17.95;;;;;;;3.42;70.11;102422.28;5030388;28;20061;-43
2021/12/22 10:02:58;;;;;;;37.38;18.77;;;;;;;3.03;70.82;102410.53;5028614;28;20087;-43
2021/12/22 10:05:23;;;;;;;41.25;18.90;;;;;;;2.77;71.53;102420.94;5034371;28;20025;-42
2021/12/22 10:08:13;;;;;;;37.97;18.48;;;;;;;2.57;72.62;102411.50;5035355;28;20584;-42
2021/12/22 10:10:45;;;;;;;41.25;19.45;;;;;;;2.16;73.95;102411.28;5030046;28;20115;-42
2021/12/22 10:13:13;;;;;;;44.05;21.05;;;;;;;1.93;75.94;102402.00;5028143;28;20048;-41
2021/12/22 10:15:39;;;;;;;42.38;20.30;;;;;;;1.94;76.07;102404.53;5026771;28;20045;-42
2021/12/22 10:18:20;;;;;;;35.13;18.92;;;;;;;2.02;75.47;102419.19;5029320;28;20041;-42
2021/12/22 10:20:48;;;;;;;41.83;18.83;;;;;;;2.12;75.33;102405.28;5027436;28;20056;-41
2021/12/22 10:23:26;;;;;;;39.75;18.95;;;;;;;2.06;75.71;102407.44;5030096;28;20048;-44
2021/12/22 10:25:54;;;;;;;47.83;18.83;;;;;;;2.11;75.70;102405.41;5030215;28;20037;-42
2021/12/22 10:28:19;;;;;;;41.65;18.67;;;;;;;2.24;75.17;102408.16;5028878;28;20068;-43
2021/12/22 10:30:48;;;;;;;36.72;17.98;;;;;;;2.16;75.41;102406.84;5029203;28;20434;-43
2021/12/22 10:33:21;;;;;;;49.05;19.45;;;;;;;2.24;74.98;102403.72;5024191;28;20381;-43
2021/12/22 10:35:58;;;;;;;39.40;19.17;;;;;;;2.31;74.97;102398.91;5030457;28;20056;-43
2021/12/22 10:38:29;;;;;;;41.78;19.50;;;;;;;2.11;75.98;102408.03;5028792;28;20038;-41
2021/12/22 10:41:02;;;;;;;40.30;17.80;;;;;;;1.93;76.70;102404.63;5024833;28;20036;-42
2021/12/22 10:43:32;;;;;;;33.33;18.33;;;;;;;1.78;76.13;102416.97;5028895;28;20051;-41
2021/12/22 10:46:00;;;;;;;38.55;18.50;;;;;;;1.70;77.20;102413.91;5016790;28;20080;-43
2021/12/22 10:51:24;;;;;;;39.53;18.02;;;;;;;1.63;77.79;102401.91;5016722;28;20041;-42
2021/12/22 10:53:50;;;;;;;43.85;18.10;;;;;;;1.73;78.48;102392.47;5024651;28;20053;-44
2021/12/22 10:56:32;;;;;;;40.00;18.15;;;;;;;1.83;77.39;102390.19;5010035;28;20026;-42
2021/12/22 10:59:02;;;;;;;34.72;17.42;;;;;;;2.08;77.05;102390.50;5011921;28;20029;-43
2021/12/22 11:01:27;;;;;;;43.78;18.25;;;;;;;2.05;77.09;102384.47;5013409;28;20038;-43
2021/12/22 11:04:01;;;;;;;41.25;17.88;;;;;;;2.12;75.90;102386.69;5025588;28;20631;-43
2021/12/22 11:06:29;;;;;;;43.13;19.13;;;;;;;2.25;77.10;102384.19;5009911;28;20250;-43
2021/12/22 11:09:00;;;;;;;43.40;19.10;;;;;;;2.20;75.98;102368.50;5016080;28;20022;-42
2021/12/22 11:11:36;;;;;;;43.67;19.33;;;;;;;2.20;76.17;102373.81;5017100;28;20120;-42
2021/12/22 11:14:03;;;;;;;41.72;18.15;;;;;;;2.44;75.65;102362.69;5017230;28;20032;-43
2021/12/22 11:16:28;;;;;;;39.22;17.30;;;;;;;2.70;74.71;102361.13;5015329;28;20038;-44
2021/12/22 11:18:53;;;;;;;38.25;17.38;;;;;;;2.69;75.66;102356.75;5016067;28;20117;-42
2021/12/22 11:21:27;;;;;;;35.85;16.38;;;;;;;3.08;73.18;102361.41;5015399;28;20107;-43
2021/12/22 11:23:52;;;;;;;37.17;16.65;;;;;;;2.93;73.24;102353.53;5016258;28;20107;-41
2021/12/22 11:26:18;;;;;;;37.00;17.88;;;;;;;2.80;74.32;102343.66;5005973;28;20477;-44
2021/12/22 11:28:44;;;;;;;38.53;18.08;;;;;;;3.01;75.07;102352.09;5029495;28;20436;-42